Terminal Aerodrome Forecast
Issued by NWS

Home | Current Version | Previous Version | Text Only | Print | Product List | Glossary On
Versions: 1 2 3 4 5 6 7 8 9 10 11 12 13
000
FTUS44 KEPZ 261700
TAFDMN
TAF
KDMN 261724Z 2618/2718 12011KT P6SM FEW070 SCT200
     FM261900 16012G22KT P6SM SCT070 BKN150
     FM270300 08010KT P6SM FEW025 BKN200=

USA.gov is the U.S. government's official web portal to all federal, state and local government web resources and services.